Time;durP1;ratioP1;P1;durP2;ratioP2;P2;SDS_P1;SDS_P2;PMS_P1;PMS_P2;Temp;Humidity;BMP_temperature;BMP_pressure;BME280_temperature;BME280_humidity;BME280_pressure;Samples;Min_cycle;Max_cycle;Signal;HPM_P1;HPM_P2
2022/01/07 00:00:55;;;;;;;13.25;6.80;;;-1.50;99.90;;;;;;5010547;28;20207;-73
2022/01/07 00:03:22;;;;;;;7.18;5.90;;;-1.50;99.90;;;;;;5011032;28;20229;-73
2022/01/07 00:05:51;;;;;;;10.25;6.30;;;-1.60;99.90;;;;;;5011074;28;20229;-73
2022/01/07 00:08:17;;;;;;;9.85;6.43;;;-1.60;99.90;;;;;;5011032;28;20253;-73
2022/01/07 00:10:44;;;;;;;10.65;6.90;;;-1.60;99.90;;;;;;5010737;28;20205;-74
2022/01/07 00:13:12;;;;;;;8.75;6.65;;;-1.60;99.90;;;;;;5010575;28;20202;-73
2022/01/07 00:15:40;;;;;;;8.82;5.85;;;-1.60;99.90;;;;;;5010777;28;20666;-73
2022/01/07 00:18:07;;;;;;;7.45;5.88;;;-1.60;99.90;;;;;;5010732;28;20257;-74
2022/01/07 00:20:34;;;;;;;8.43;5.90;;;-1.60;99.90;;;;;;5010713;28;20206;-73
2022/01/07 00:23:02;;;;;;;9.55;6.25;;;-1.60;99.90;;;;;;5010414;28;20202;-73
2022/01/07 00:25:29;;;;;;;9.15;6.28;;;-1.70;99.90;;;;;;5010863;28;20198;-74
2022/01/07 00:27:55;;;;;;;9.50;6.20;;;-1.70;99.90;;;;;;5010543;28;20244;-73
2022/01/07 00:30:23;;;;;;;9.05;6.25;;;-1.70;99.90;;;;;;5010636;28;20210;-73
2022/01/07 00:32:50;;;;;;;8.13;5.60;;;-1.70;99.90;;;;;;5010389;28;20241;-74
2022/01/07 00:35:18;;;;;;;8.48;5.82;;;-1.70;99.90;;;;;;5010699;28;20732;-74
2022/01/07 00:37:46;;;;;;;11.85;6.35;;;-1.80;99.90;;;;;;5010803;28;20206;-73
2022/01/07 00:40:20;;;;;;;7.93;5.45;;;-1.80;99.90;;;;;;5012460;28;20202;-73
2022/01/07 00:42:49;;;;;;;8.60;6.80;;;-1.80;99.90;;;;;;5010472;28;20269;-73
2022/01/07 00:45:16;;;;;;;11.50;6.38;;;-1.80;99.90;;;;;;5010798;28;20222;-73
2022/01/07 00:47:43;;;;;;;8.02;6.07;;;-1.80;99.90;;;;;;5010459;28;20213;-73
2022/01/07 00:50:11;;;;;;;9.25;6.78;;;-1.80;99.90;;;;;;5010744;28;20202;-73
2022/01/07 00:52:38;;;;;;;7.80;6.10;;;-1.80;99.90;;;;;;5010297;28;20206;-73
2022/01/07 00:55:06;;;;;;;8.18;5.78;;;-1.90;99.90;;;;;;5010790;28;20226;-73
2022/01/07 00:57:34;;;;;;;11.50;6.47;;;-1.80;99.90;;;;;;5010442;28;20203;-73
2022/01/07 01:00:01;;;;;;;8.20;5.72;;;-1.90;99.90;;;;;;5010555;28;20226;-73
2022/01/07 01:02:27;;;;;;;8.65;5.72;;;-1.90;99.90;;;;;;5010073;28;20210;-73
2022/01/07 01:04:54;;;;;;;7.45;5.90;;;-1.90;99.90;;;;;;5010901;28;20222;-73
2022/01/07 01:07:21;;;;;;;8.50;5.80;;;-2.00;99.90;;;;;;5010707;28;20206;-73
2022/01/07 01:09:47;;;;;;;7.85;5.60;;;-2.00;99.90;;;;;;5010422;28;20665;-74
2022/01/07 01:12:14;;;;;;;9.68;6.63;;;-2.00;99.90;;;;;;5011597;28;20203;-73
2022/01/07 01:14:42;;;;;;;7.43;5.97;;;-2.00;99.90;;;;;;5013844;28;20230;-73
2022/01/07 01:17:10;;;;;;;10.98;6.40;;;-2.10;99.90;;;;;;5013921;28;20213;-73
2022/01/07 01:19:37;;;;;;;10.93;7.28;;;-2.10;99.90;;;;;;5013595;28;20222;-73
2022/01/07 01:22:05;;;;;;;12.40;6.70;;;-2.10;99.90;;;;;;5013384;28;20207;-73
2022/01/07 01:24:32;;;;;;;8.57;6.22;;;-2.20;99.90;;;;;;5013887;28;20222;-73
2022/01/07 01:26:59;;;;;;;9.88;5.45;;;-2.20;99.90;;;;;;5013978;28;20403;-73
2022/01/07 01:29:25;;;;;;;7.22;5.65;;;-2.30;99.90;;;;;;5013764;28;20594;-74
2022/01/07 01:31:54;;;;;;;11.98;5.55;;;-2.30;99.90;;;;;;5013224;28;20206;-73
2022/01/07 01:34:21;;;;;;;6.53;5.40;;;-2.30;99.90;;;;;;5013547;28;20233;-73
2022/01/07 01:36:48;;;;;;;10.43;6.65;;;-2.30;99.90;;;;;;5013460;28;20214;-73
2022/01/07 01:39:14;;;;;;;9.90;5.43;;;-2.40;99.90;;;;;;5013502;28;20232;-73
2022/01/07 01:41:42;;;;;;;8.85;5.45;;;-2.40;99.90;;;;;;5012832;28;20203;-74
2022/01/07 01:44:09;;;;;;;8.63;6.55;;;-2.40;99.90;;;;;;5013388;28;20230;-74
2022/01/07 01:46:36;;;;;;;8.98;5.50;;;-2.40;99.90;;;;;;5013441;28;20203;-74
2022/01/07 01:49:05;;;;;;;9.98;5.40;;;-2.40;99.90;;;;;;5013300;28;20214;-73
2022/01/07 01:51:33;;;;;;;9.27;6.57;;;-2.40;99.90;;;;;;5012598;28;20230;-73
2022/01/07 01:54:00;;;;;;;15.90;6.65;;;-2.40;99.90;;;;;;5013311;28;20293;-73
2022/01/07 01:56:27;;;;;;;11.00;6.10;;;-2.50;99.90;;;;;;5013185;28;20628;-73
2022/01/07 01:58:54;;;;;;;7.35;6.45;;;-2.50;99.90;;;;;;5013027;28;20233;-73
2022/01/07 02:01:21;;;;;;;13.25;7.10;;;-2.50;99.90;;;;;;5012563;28;20210;-73
2022/01/07 02:03:48;;;;;;;8.18;6.10;;;-2.40;99.90;;;;;;5012986;28;20222;-73
2022/01/07 02:06:17;;;;;;;9.77;6.55;;;-2.40;99.90;;;;;;5013268;28;20210;-73
2022/01/07 02:08:44;;;;;;;14.60;6.97;;;-2.40;99.90;;;;;;5013057;28;20663;-73
2022/01/07 02:11:11;;;;;;;11.45;6.85;;;-2.40;99.90;;;;;;5012657;28;20207;-73
2022/01/07 02:13:38;;;;;;;9.43;7.32;;;-2.30;99.90;;;;;;5012876;28;20384;-74
2022/01/07 02:16:05;;;;;;;7.97;6.72;;;-2.30;99.90;;;;;;5013028;28;20206;-74
2022/01/07 02:18:32;;;;;;;12.00;7.13;;;-2.30;99.90;;;;;;5012414;28;20623;-74
2022/01/07 02:21:00;;;;;;;10.57;6.97;;;-2.30;99.90;;;;;;5012439;28;20207;-73
2022/01/07 02:23:26;;;;;;;8.60;6.57;;;-2.20;99.90;;;;;;5011620;28;20227;-73
2022/01/07 02:25:56;;;;;;;11.13;7.07;;;-2.20;99.90;;;;;;5012956;28;20221;-73
2022/01/07 02:28:23;;;;;;;7.55;6.72;;;-2.20;99.90;;;;;;5012440;28;20217;-73
2022/01/07 02:30:50;;;;;;;12.10;7.35;;;-2.20;99.90;;;;;;5012448;28;20206;-73
2022/01/07 02:33:17;;;;;;;9.55;6.82;;;-2.20;99.90;;;;;;5012389;28;20206;-73
2022/01/07 02:35:45;;;;;;;10.20;7.28;;;-2.20;99.90;;;;;;5012436;28;20617;-74
2022/01/07 02:38:14;;;;;;;10.40;7.22;;;-2.20;99.90;;;;;;5012503;28;20242;-73
2022/01/07 02:40:41;;;;;;;10.65;6.60;;;-2.10;99.90;;;;;;5012183;28;20229;-73
2022/01/07 02:43:08;;;;;;;10.27;7.65;;;-2.10;99.90;;;;;;5012085;28;20206;-73
2022/01/07 02:45:35;;;;;;;7.57;6.38;;;-2.10;99.90;;;;;;5012467;28;20288;-73
2022/01/07 02:48:03;;;;;;;8.35;6.70;;;-2.10;99.90;;;;;;5012340;28;20214;-73
2022/01/07 02:50:33;;;;;;;8.10;6.85;;;-2.20;99.90;;;;;;5012052;28;20202;-74
2022/01/07 02:53:01;;;;;;;12.27;7.45;;;-2.20;99.90;;;;;;5011823;28;20230;-73
2022/01/07 02:55:30;;;;;;;11.88;7.45;;;-2.10;99.90;;;;;;5012040;28;20635;-73
2022/01/07 02:57:56;;;;;;;9.45;7.00;;;-2.10;99.90;;;;;;5012219;28;20629;-73
2022/01/07 03:00:25;;;;;;;12.95;6.97;;;-2.20;99.90;;;;;;5012092;28;20219;-73
2022/01/07 03:02:52;;;;;;;14.80;7.45;;;-2.20;99.90;;;;;;5011577;28;20721;-73
2022/01/07 03:05:20;;;;;;;11.88;6.70;;;-2.20;99.90;;;;;;5011973;28;20234;-73
2022/01/07 03:07:47;;;;;;;12.43;7.15;;;-2.20;99.90;;;;;;5011805;28;20680;-74
2022/01/07 03:10:15;;;;;;;9.70;6.63;;;-2.20;99.90;;;;;;5012018;28;20229;-73
2022/01/07 03:12:43;;;;;;;7.68;5.82;;;-2.10;99.90;;;;;;5011134;28;20202;-74
2022/01/07 03:15:12;;;;;;;12.90;6.78;;;-2.10;99.90;;;;;;5012104;28;20316;-74
2022/01/07 03:17:40;;;;;;;5.72;5.13;;;-2.10;99.90;;;;;;5011466;28;20214;-73
2022/01/07 03:20:08;;;;;;;8.82;5.82;;;-2.10;99.90;;;;;;5011784;28;20607;-74
2022/01/07 03:22:35;;;;;;;8.57;5.60;;;-2.00;99.90;;;;;;5011243;28;20574;-74
2022/01/07 03:25:02;;;;;;;9.50;5.60;;;-2.00;99.90;;;;;;5011824;28;20222;-73
2022/01/07 03:27:29;;;;;;;7.57;5.88;;;-2.00;99.90;;;;;;5011295;28;20209;-73
2022/01/07 03:29:57;;;;;;;7.35;5.40;;;-2.00;99.90;;;;;;5011787;28;20202;-73
2022/01/07 03:32:24;;;;;;;6.97;5.20;;;-2.00;99.90;;;;;;5010945;28;20206;-73
2022/01/07 03:34:51;;;;;;;7.38;5.25;;;-2.00;99.90;;;;;;5011108;28;20644;-73
2022/01/07 03:37:18;;;;;;;14.52;5.78;;;-2.10;99.90;;;;;;5011516;28;20620;-74
2022/01/07 03:39:44;;;;;;;7.53;5.20;;;-2.10;99.90;;;;;;5011173;28;20625;-73
2022/01/07 03:42:12;;;;;;;8.88;6.70;;;-2.10;99.90;;;;;;5011116;28;20202;-73
2022/01/07 03:44:42;;;;;;;7.53;6.32;;;-2.10;99.90;;;;;;5010895;28;20235;-73
2022/01/07 03:47:10;;;;;;;8.60;5.93;;;-2.10;99.90;;;;;;5011270;28;20260;-73
2022/01/07 03:49:36;;;;;;;8.85;5.10;;;-2.10;99.90;;;;;;5011524;28;20218;-73
2022/01/07 03:52:04;;;;;;;11.25;6.25;;;-2.10;99.90;;;;;;5010551;28;20213;-74
2022/01/07 03:54:31;;;;;;;7.88;5.80;;;-2.10;99.90;;;;;;5011077;28;20815;-74
2022/01/07 03:56:57;;;;;;;8.05;5.60;;;-2.10;99.90;;;;;;5010883;28;20207;-74
2022/01/07 03:59:24;;;;;;;8.68;6.40;;;-2.10;99.90;;;;;;5011094;28;20214;-74
2022/01/07 04:01:51;;;;;;;8.10;5.97;;;-2.20;99.90;;;;;;5010479;28;20575;-73
2022/01/07 04:04:19;;;;;;;9.63;5.72;;;-2.20;99.90;;;;;;5010994;28;20233;-73
2022/01/07 04:06:45;;;;;;;12.45;7.35;;;-2.20;99.90;;;;;;5011029;28;20627;-73
2022/01/07 04:09:12;;;;;;;10.02;6.00;;;-2.20;99.90;;;;;;5011020;28;20210;-74
2022/01/07 04:11:39;;;;;;;7.43;5.47;;;-2.20;99.90;;;;;;5010393;28;20598;-73
2022/01/07 04:14:06;;;;;;;7.75;5.45;;;-2.30;99.90;;;;;;5010946;28;20222;-74
2022/01/07 04:16:32;;;;;;;10.30;6.47;;;-2.30;99.90;;;;;;5010929;28;20207;-74
2022/01/07 04:18:59;;;;;;;7.57;5.88;;;-2.20;99.90;;;;;;5010475;28;20213;-73
2022/01/07 04:21:27;;;;;;;8.45;5.30;;;-2.20;99.90;;;;;;5010203;28;20562;-73
2022/01/07 04:23:54;;;;;;;7.90;5.97;;;-2.20;99.90;;;;;;5010710;28;20218;-73
2022/01/07 04:26:20;;;;;;;9.88;6.65;;;-2.20;99.90;;;;;;5010707;28;20285;-73
2022/01/07 04:28:47;;;;;;;8.75;6.20;;;-2.30;99.90;;;;;;5051911;23;20235;-93
2022/01/07 04:31:14;;;;;;;11.52;6.68;;;-2.30;99.90;;;;;;5073261;28;20200;-93
2022/01/07 04:33:41;;;;;;;9.07;6.00;;;-2.40;99.90;;;;;;5074132;28;20204;-93
2022/01/07 04:36:08;;;;;;;8.70;5.90;;;-2.40;99.90;;;;;;5073785;28;20658;-92
2022/01/07 04:38:36;;;;;;;10.27;7.15;;;-2.40;99.90;;;;;;5073750;28;20221;-93
2022/01/07 04:41:04;;;;;;;10.63;6.45;;;-2.50;99.90;;;;;;5073850;28;20224;-92
2022/01/07 04:43:31;;;;;;;13.10;7.03;;;-2.50;99.90;;;;;;5074324;28;20211;-92
2022/01/07 04:45:58;;;;;;;9.65;6.50;;;-2.50;99.90;;;;;;5074319;28;20204;-92
2022/01/07 04:48:24;;;;;;;7.95;5.65;;;-2.50;99.90;;;;;;5077854;28;20220;-91
2022/01/07 04:50:51;;;;;;;12.30;7.18;;;-2.50;99.90;;;;;;5079018;28;20192;-92
2022/01/07 04:53:18;;;;;;;10.48;7.05;;;-2.50;99.90;;;;;;5079079;28;20243;-91
2022/01/07 04:55:47;;;;;;;7.25;5.65;;;-2.50;99.90;;;;;;5079314;28;20204;-92
2022/01/07 04:58:15;;;;;;;10.75;6.95;;;-2.50;99.90;;;;;;5079540;28;20215;-92
2022/01/07 05:00:44;;;;;;;12.02;6.25;;;-2.50;99.90;;;;;;5079696;28;20307;-92
2022/01/07 05:03:11;;;;;;;13.65;7.32;;;-2.50;99.90;;;;;;5080122;28;20211;-92
2022/01/07 05:05:38;;;;;;;9.93;6.65;;;-2.50;99.90;;;;;;5079838;28;20201;-92
2022/01/07 05:08:05;;;;;;;11.95;6.90;;;-2.50;99.90;;;;;;5079313;28;20204;-92
2022/01/07 05:10:33;;;;;;;10.32;6.60;;;-2.50;99.90;;;;;;5079113;28;20197;-92
2022/01/07 05:13:02;;;;;;;10.35;6.90;;;-2.50;99.90;;;;;;5078763;28;20204;-92
2022/01/07 05:15:29;;;;;;;11.13;6.97;;;-2.50;99.90;;;;;;5078635;28;20202;-91
2022/01/07 05:17:56;;;;;;;12.13;6.78;;;-2.40;99.90;;;;;;5078961;28;20203;-90
2022/01/07 05:20:22;;;;;;;13.25;7.43;;;-2.40;99.90;;;;;;5081652;28;20226;-92
2022/01/07 05:22:49;;;;;;;11.50;7.43;;;-2.40;99.90;;;;;;5085166;28;20205;-92
2022/01/07 05:25:17;;;;;;;9.93;6.82;;;-2.40;99.90;;;;;;5085719;28;20272;-92
2022/01/07 05:27:44;;;;;;;12.07;6.85;;;-2.40;99.90;;;;;;5092673;28;20272;-92
2022/01/07 05:30:14;;;;;;;13.00;7.65;;;-2.40;99.90;;;;;;5088245;28;20228;-92
2022/01/07 05:32:41;;;;;;;9.23;5.88;;;-2.30;99.90;;;;;;5077427;28;20200;-92
2022/01/07 05:35:09;;;;;;;11.68;7.40;;;-2.30;99.90;;;;;;5077459;28;20208;-92
2022/01/07 05:37:36;;;;;;;11.27;7.03;;;-2.30;99.90;;;;;;5076928;28;20204;-92
2022/01/07 05:40:04;;;;;;;10.75;6.15;;;-2.30;99.90;;;;;;5076844;28;20231;-92
2022/01/07 05:42:31;;;;;;;9.93;6.90;;;-2.20;99.90;;;;;;5077095;28;20208;-92
2022/01/07 05:44:58;;;;;;;12.43;7.22;;;-2.20;99.90;;;;;;5077664;28;20665;-92
2022/01/07 05:47:26;;;;;;;12.45;7.72;;;-2.20;99.90;;;;;;5093925;28;20212;-92
2022/01/07 05:49:53;;;;;;;10.63;7.38;;;-2.20;99.90;;;;;;5101013;28;20267;-92
2022/01/07 05:52:20;;;;;;;11.15;6.65;;;-2.20;99.90;;;;;;5100606;28;20237;-91
2022/01/07 05:54:48;;;;;;;11.43;7.40;;;-2.20;99.90;;;;;;5100857;28;20212;-93
2022/01/07 05:57:15;;;;;;;12.10;7.82;;;-2.20;99.90;;;;;;5100201;28;20248;-92
2022/01/07 05:59:42;;;;;;;12.13;8.07;;;-2.20;99.90;;;;;;5099740;28;20204;-92
2022/01/07 06:02:09;;;;;;;10.40;7.25;;;-2.20;99.90;;;;;;5081899;28;20207;-91
2022/01/07 06:04:37;;;;;;;9.90;6.80;;;-2.10;99.90;;;;;;5077872;28;20206;-93
2022/01/07 06:07:04;;;;;;;10.80;7.25;;;-2.10;99.90;;;;;;5078086;28;20216;-92
2022/01/07 06:09:31;;;;;;;17.75;8.60;;;-2.10;99.90;;;;;;5077034;28;20224;-92
2022/01/07 06:11:58;;;;;;;13.85;8.32;;;-2.00;99.90;;;;;;5076691;28;20216;-92
2022/01/07 06:14:26;;;;;;;11.77;7.80;;;-2.00;99.90;;;;;;5077813;28;20205;-92
2022/01/07 06:16:53;;;;;;;10.80;7.00;;;-2.00;99.90;;;;;;5076651;28;20208;-92
2022/01/07 06:19:21;;;;;;;14.48;8.43;;;-2.00;99.90;;;;;;5076998;28;20221;-92
2022/01/07 06:21:52;;;;;;;13.80;8.30;;;-2.00;99.90;;;;;;5076639;28;20224;-92
2022/01/07 06:24:20;;;;;;;13.35;7.47;;;-2.00;99.90;;;;;;5076664;28;20200;-92
2022/01/07 06:26:47;;;;;;;13.23;7.50;;;-2.00;99.90;;;;;;5076736;28;20577;-91
2022/01/07 06:29:15;;;;;;;14.93;8.10;;;-2.00;99.90;;;;;;5075594;28;20319;-92
2022/01/07 06:31:43;;;;;;;12.18;7.93;;;-2.00;99.90;;;;;;5075114;28;20209;-91
2022/01/07 06:34:10;;;;;;;12.80;7.53;;;-2.00;99.90;;;;;;5076186;28;20208;-92
2022/01/07 06:36:37;;;;;;;13.70;8.20;;;-2.00;99.90;;;;;;5075532;28;20208;-92
2022/01/07 06:39:05;;;;;;;11.73;7.30;;;-1.90;99.90;;;;;;5075854;28;20217;-91
2022/01/07 06:41:32;;;;;;;11.48;7.60;;;-1.80;99.90;;;;;;5076343;28;20224;-92
2022/01/07 06:43:59;;;;;;;11.13;7.18;;;-1.90;99.90;;;;;;5075816;28;20223;-92
2022/01/07 06:46:26;;;;;;;12.35;7.50;;;-1.90;99.90;;;;;;5074938;28;20235;-91
2022/01/07 06:48:53;;;;;;;11.40;6.78;;;-1.90;99.90;;;;;;5074679;28;20228;-91
2022/01/07 06:51:20;;;;;;;13.20;7.55;;;-1.80;99.90;;;;;;5074948;28;20196;-92
2022/01/07 06:53:47;;;;;;;11.30;8.02;;;-1.80;99.90;;;;;;5079669;28;20207;-92
2022/01/07 06:56:15;;;;;;;11.02;8.00;;;-1.80;99.90;;;;;;5097678;28;20196;-92
2022/01/07 06:58:42;;;;;;;12.95;7.97;;;-1.80;99.90;;;;;;5098326;28;20276;-92
2022/01/07 07:01:09;;;;;;;12.23;7.57;;;-1.80;99.90;;;;;;5089932;28;20512;-91
2022/01/07 07:03:36;;;;;;;10.98;7.60;;;-1.70;99.90;;;;;;5080592;28;20212;-92
2022/01/07 07:06:03;;;;;;;12.98;7.25;;;-1.70;99.90;;;;;;5080142;28;20188;-91
2022/01/07 07:08:30;;;;;;;10.85;7.75;;;-1.80;99.90;;;;;;5079201;28;20267;-91
2022/01/07 07:10:57;;;;;;;10.77;7.15;;;-1.80;99.90;;;;;;5078749;28;20196;-91
2022/01/07 07:13:25;;;;;;;9.90;6.90;;;-1.80;99.90;;;;;;5079895;28;20739;-92
2022/01/07 07:15:52;;;;;;;11.02;7.22;;;-1.80;99.90;;;;;;5078773;28;20657;-92
2022/01/07 07:18:19;;;;;;;9.38;6.72;;;-1.80;99.90;;;;;;5079046;28;20236;-92
2022/01/07 07:20:46;;;;;;;9.60;6.25;;;-1.70;99.90;;;;;;5078775;28;20213;-92
2022/01/07 07:23:12;;;;;;;11.52;6.82;;;-1.60;99.90;;;;;;5077821;28;20200;-92
2022/01/07 07:25:40;;;;;;;10.68;7.95;;;-1.50;99.90;;;;;;5077303;28;20212;-92
2022/01/07 07:28:07;;;;;;;10.77;6.78;;;-1.50;99.90;;;;;;5076967;28;20672;-93
2022/01/07 07:30:38;;;;;;;12.65;6.63;;;-1.50;99.90;;;;;;5088603;28;20287;-93
2022/01/07 07:33:29;;;;;;;10.52;6.68;;;-1.40;99.90;;;;;;5038508;28;20237;-93
2022/01/07 07:38:53;;;;;;;9.07;5.88;;;-1.40;99.90;;;;;;4996650;28;20265;-93
2022/01/07 07:41:20;;;;;;;10.00;7.60;;;-1.50;99.90;;;;;;5038966;28;20209;-92
2022/01/07 07:43:49;;;;;;;12.65;7.00;;;-1.40;99.90;;;;;;5057436;28;20197;-92
2022/01/07 07:46:21;;;;;;;9.88;6.65;;;-1.40;99.90;;;;;;5057782;28;20197;-93
2022/01/07 07:54:59;;;;;;;9.25;6.80;;;-1.30;99.90;;;;;;5061064;28;20216;-94
2022/01/07 07:57:26;;;;;;;9.52;7.63;;;-1.20;99.90;;;;;;5056619;28;20671;-93
2022/01/07 07:59:58;;;;;;;9.32;7.05;;;-1.20;99.90;;;;;;5060890;28;20224;-94
2022/01/07 08:02:30;;;;;;;9.82;7.22;;;-1.00;99.90;;;;;;5055685;28;20243;-93
2022/01/07 08:04:59;;;;;;;9.63;6.40;;;-0.90;99.90;;;;;;5056850;28;20205;-93
2022/01/07 08:07:33;;;;;;;10.43;6.70;;;-0.50;99.90;;;;;;5057264;28;20288;-91
2022/01/07 08:10:01;;;;;;;9.07;6.43;;;-0.10;99.90;;;;;;5058690;28;20312;-93
2022/01/07 08:12:51;;;;;;;9.98;6.40;;;-0.10;99.90;;;;;;5068564;28;20197;-94
2022/01/07 08:21:37;;;;;;;9.27;6.60;;;-0.30;99.90;;;;;;5072146;28;20205;-95
2022/01/07 08:24:14;;;;;;;10.25;6.70;;;-0.40;99.90;;;;;;5073579;28;20177;-94
2022/01/07 08:26:41;;;;;;;9.57;6.32;;;-0.50;99.90;;;;;;5075866;28;20255;-94
2022/01/07 08:29:11;;;;;;;13.50;7.32;;;-0.60;99.90;;;;;;5075153;28;20219;-95
2022/01/07 08:37:32;;;;;;;12.30;6.40;;;-0.60;99.90;;;;;;5076197;28;20272;-95
2022/01/07 08:39:59;;;;;;;9.95;6.13;;;-0.60;99.90;;;;;;5098076;22;20890;-73
2022/01/07 08:42:27;;;;;;;10.10;6.15;;;-0.60;99.90;;;;;;5119833;28;20222;-73
2022/01/07 08:44:54;;;;;;;9.02;6.40;;;-0.60;99.90;;;;;;5104180;28;20216;-72
2022/01/07 08:47:23;;;;;;;9.40;6.53;;;-0.50;99.90;;;;;;5098272;28;20282;-73
2022/01/07 08:49:51;;;;;;;9.00;6.15;;;-0.50;99.90;;;;;;5098713;28;20245;-73
2022/01/07 08:52:19;;;;;;;7.38;5.47;;;-0.50;99.90;;;;;;5099495;28;20217;-74
2022/01/07 08:54:50;;;;;;;10.10;6.07;;;-0.40;99.90;;;;;;5098616;28;20216;-73
2022/01/07 08:57:17;;;;;;;6.38;5.53;;;-0.40;99.90;;;;;;5098436;28;20646;-74
2022/01/07 08:59:44;;;;;;;8.63;6.22;;;-0.30;99.90;;;;;;5104120;28;20674;-73
2022/01/07 09:02:11;;;;;;;6.40;5.50;;;-0.30;99.90;;;;;;5109963;28;20713;-73
2022/01/07 09:04:38;;;;;;;8.25;6.22;;;-0.40;99.90;;;;;;5110600;28;20728;-73
2022/01/07 09:07:05;;;;;;;9.20;6.13;;;-0.30;99.90;;;;;;5110381;28;20195;-74
2022/01/07 09:09:31;;;;;;;8.30;5.88;;;-0.20;99.90;;;;;;5108074;28;20594;-74
2022/01/07 09:11:59;;;;;;;10.02;6.35;;;-0.20;99.90;;;;;;5109848;28;20260;-74
2022/01/07 09:14:26;;;;;;;7.97;5.80;;;-0.20;99.90;;;;;;5111346;28;20231;-73
2022/01/07 09:16:53;;;;;;;9.15;5.57;;;-0.30;99.90;;;;;;5111028;28;20549;-73
2022/01/07 09:19:20;;;;;;;6.90;5.38;;;-0.20;99.90;;;;;;5111483;28;20207;-73
2022/01/07 09:21:46;;;;;;;7.55;5.30;;;-0.10;99.90;;;;;;5110361;28;20231;-73
2022/01/07 09:24:13;;;;;;;7.80;5.60;;;-0.10;99.90;;;;;;5110784;28;20219;-73
2022/01/07 09:26:40;;;;;;;7.63;6.22;;;0.00;99.90;;;;;;5110926;28;20207;-74
2022/01/07 09:29:08;;;;;;;8.73;5.95;;;0.00;99.90;;;;;;5110809;28;20206;-73
2022/01/07 09:31:35;;;;;;;7.43;5.20;;;0.00;99.90;;;;;;5111098;28;20196;-74
2022/01/07 09:34:02;;;;;;;8.60;5.82;;;0.00;99.90;;;;;;5113634;28;20258;-73
2022/01/07 09:36:29;;;;;;;7.80;5.55;;;-0.10;99.90;;;;;;5114829;28;20555;-73
2022/01/07 09:38:56;;;;;;;7.50;4.93;;;-0.10;99.90;;;;;;5114439;28;20211;-74
2022/01/07 09:41:23;;;;;;;8.52;6.65;;;-0.10;99.90;;;;;;5114352;28;20223;-73
2022/01/07 09:43:50;;;;;;;7.50;5.68;;;-0.10;99.90;;;;;;5114307;28;20607;-74
2022/01/07 09:46:19;;;;;;;6.15;5.10;;;-0.10;99.90;;;;;;5113671;28;20692;-73
2022/01/07 09:48:46;;;;;;;9.25;6.40;;;-0.10;99.90;;;;;;5114108;28;20234;-73
2022/01/07 09:51:14;;;;;;;6.75;5.20;;;-0.10;99.90;;;;;;5114462;28;20199;-73
2022/01/07 09:53:41;;;;;;;8.45;5.50;;;-0.20;99.90;;;;;;5114302;28;20231;-71
2022/01/07 09:56:08;;;;;;;6.68;5.10;;;-0.20;99.90;;;;;;5114561;28;20207;-73
2022/01/07 09:58:35;;;;;;;7.93;5.35;;;-0.20;99.90;;;;;;5114001;28;20203;-73
2022/01/07 10:01:03;;;;;;;8.48;5.68;;;-0.20;99.90;;;;;;5113491;28;20716;-73
2022/01/07 10:03:39;;;;;;;7.30;5.95;;;-0.10;99.90;;;;;;5114330;28;20309;-73
2022/01/07 10:06:20;;;;;;;6.40;5.53;;;-0.10;99.90;;;;;;5114028;28;20195;-73
2022/01/07 10:08:58;;;;;;;8.50;5.90;;;0.00;99.90;;;;;;5114228;28;20209;-73
2022/01/07 10:11:25;;;;;;;7.30;5.43;;;0.00;99.90;;;;;;5113263;28;20198;-73
2022/01/07 10:14:15;;;;;;;7.47;5.65;;;0.10;99.90;;;;;;5114282;28;20309;-73
2022/01/07 10:16:53;;;;;;;10.15;5.20;;;0.10;99.90;;;;;;5113858;28;20232;-73
2022/01/07 10:19:36;;;;;;;11.85;5.85;;;0.10;99.90;;;;;;5112365;28;20199;-73
2022/01/07 10:22:05;;;;;;;8.07;6.15;;;0.00;99.90;;;;;;5113338;28;20215;-73
2022/01/07 10:24:32;;;;;;;8.55;5.78;;;0.00;99.90;;;;;;5113407;28;20717;-73
2022/01/07 10:27:15;;;;;;;7.65;6.28;;;0.00;99.90;;;;;;5113413;28;20206;-73
2022/01/07 10:29:44;;;;;;;15.50;6.40;;;-0.10;99.90;;;;;;5148828;22;20240;-70
2022/01/07 10:32:29;;;;;;;8.70;6.28;;;-0.10;99.90;;;;;;5017593;28;20213;-71
2022/01/07 10:35:10;;;;;;;10.10;6.32;;;-0.10;99.90;;;;;;5012702;28;20233;-71
2022/01/07 10:37:45;;;;;;;12.82;6.50;;;0.00;99.90;;;;;;5012717;28;20202;-71
2022/01/07 10:40:25;;;;;;;7.28;5.90;;;0.00;99.90;;;;;;5013035;28;20209;-69
2022/01/07 10:42:54;;;;;;;7.88;5.75;;;0.10;99.90;;;;;;5011380;28;20692;-71
2022/01/07 10:45:21;;;;;;;10.52;7.18;;;0.00;99.90;;;;;;5011260;28;20268;-71
2022/01/07 10:47:53;;;;;;;11.45;6.45;;;0.00;99.90;;;;;;5011609;28;20216;-70
2022/01/07 10:50:23;;;;;;;7.32;6.40;;;0.00;99.90;;;;;;5012662;28;20213;-71
2022/01/07 10:52:50;;;;;;;13.20;6.82;;;0.00;99.90;;;;;;5011933;28;20201;-70
2022/01/07 10:55:20;;;;;;;11.95;5.97;;;0.10;99.90;;;;;;5012090;28;20226;-70
2022/01/07 10:57:48;;;;;;;9.75;6.72;;;0.10;99.90;;;;;;5011325;28;20286;-71
2022/01/07 11:00:17;;;;;;;10.93;6.55;;;0.10;99.90;;;;;;5011097;28;20198;-70
2022/01/07 11:02:43;;;;;;;10.63;8.20;;;0.00;99.90;;;;;;5011059;28;20261;-70
2022/01/07 11:05:11;;;;;;;8.52;5.97;;;0.10;99.90;;;;;;5011836;28;20222;-71
2022/01/07 11:07:39;;;;;;;10.95;6.88;;;0.10;99.90;;;;;;5011711;28;20213;-70
2022/01/07 11:10:07;;;;;;;12.85;6.40;;;0.10;99.90;;;;;;5006063;28;20240;-71
2022/01/07 11:12:35;;;;;;;9.90;7.18;;;0.10;99.90;;;;;;4991414;28;20204;-71
2022/01/07 11:15:05;;;;;;;9.65;6.85;;;0.10;99.90;;;;;;4992107;28;20230;-70
2022/01/07 11:17:32;;;;;;;11.02;7.05;;;0.10;99.90;;;;;;5011783;28;20206;-71
2022/01/07 11:20:00;;;;;;;8.90;5.93;;;0.10;99.90;;;;;;5011268;28;20218;-70
2022/01/07 11:22:28;;;;;;;10.00;7.47;;;0.10;99.90;;;;;;5011027;28;20233;-71
2022/01/07 11:25:08;;;;;;;9.52;6.60;;;0.10;99.90;;;;;;5011188;28;20231;-70
2022/01/07 11:27:48;;;;;;;11.57;5.90;;;0.10;99.90;;;;;;5011508;28;20669;-71
2022/01/07 11:30:18;;;;;;;8.15;6.38;;;0.20;99.90;;;;;;5011656;28;20214;-71
2022/01/07 11:32:45;;;;;;;9.68;6.43;;;0.20;99.90;;;;;;5011024;28;20567;-71
2022/01/07 11:35:47;;;;;;;9.60;6.75;;;0.30;99.90;;;;;;5011264;28;20222;-71
2022/01/07 11:38:39;;;;;;;10.18;5.53;;;0.40;99.90;;;;;;5011360;28;20202;-70
2022/01/07 11:41:13;;;;;;;7.93;5.10;;;0.40;99.90;;;;;;5010382;28;20276;-70
2022/01/07 11:43:42;;;;;;;7.65;5.65;;;0.50;99.90;;;;;;5011351;28;20233;-70
2022/01/07 11:46:30;;;;;;;7.88;5.90;;;0.60;99.90;;;;;;5011019;28;20210;-71
2022/01/07 11:48:59;;;;;;;8.70;6.30;;;0.60;99.90;;;;;;5010857;28;20202;-71
2022/01/07 11:51:40;;;;;;;6.32;5.35;;;0.80;99.90;;;;;;5010473;28;20708;-71
2022/01/07 11:54:09;;;;;;;9.93;5.88;;;1.00;99.90;;;;;;5011048;28;20250;-70
2022/01/07 11:56:38;;;;;;;9.35;5.60;;;1.30;99.90;;;;;;5011155;28;20212;-71
2022/01/07 11:59:25;;;;;;;9.98;6.38;;;1.50;99.90;;;;;;5010662;28;20206;-70
2022/01/07 12:02:02;;;;;;;8.07;5.72;;;1.60;99.90;;;;;;5010287;28;20226;-71
2022/01/07 12:04:31;;;;;;;7.45;5.95;;;1.70;99.90;;;;;;5010605;28;20313;-71
2022/01/07 12:07:01;;;;;;;7.72;5.03;;;1.80;99.90;;;;;;5010926;28;20221;-71
2022/01/07 12:09:29;;;;;;;5.70;5.07;;;1.70;99.90;;;;;;5010645;28;20206;-71
2022/01/07 12:12:00;;;;;;;8.68;4.95;;;1.50;99.90;;;;;;5010223;28;20620;-70
2022/01/07 12:14:29;;;;;;;7.15;5.78;;;1.40;99.90;;;;;;5007100;28;20218;-71
2022/01/07 12:16:57;;;;;;;6.70;5.30;;;1.20;99.90;;;;;;5010657;28;20670;-70
2022/01/07 12:20:06;;;;;;;8.73;5.78;;;1.20;99.90;;;;;;5007873;28;20218;-70
2022/01/07 12:22:33;;;;;;;9.07;5.63;;;1.10;99.90;;;;;;5009661;28;20218;-70
2022/01/07 12:25:03;;;;;;;5.50;4.22;;;1.10;99.90;;;;;;5010537;28;20272;-71
2022/01/07 12:27:32;;;;;;;8.15;4.70;;;1.20;99.90;;;;;;5008750;28;20209;-70
2022/01/07 12:30:01;;;;;;;8.50;6.00;;;1.20;99.90;;;;;;5010216;28;20229;-69
2022/01/07 12:32:33;;;;;;;5.53;4.97;;;1.20;99.90;;;;;;5009704;28;20236;-70
2022/01/07 12:35:01;;;;;;;12.23;6.22;;;1.20;99.90;;;;;;5010549;28;20233;-71
2022/01/07 12:37:29;;;;;;;7.72;4.82;;;1.30;99.90;;;;;;5010280;28;20217;-71
2022/01/07 12:39:57;;;;;;;6.60;5.50;;;1.30;99.90;;;;;;5010233;28;20202;-69
2022/01/07 12:42:24;;;;;;;8.02;5.60;;;1.20;99.90;;;;;;5009506;28;20221;-71
2022/01/07 12:44:54;;;;;;;8.80;5.25;;;1.30;99.90;;;;;;5010173;28;20222;-70
2022/01/07 12:47:23;;;;;;;5.22;4.72;;;1.30;99.90;;;;;;5010298;28;20712;-70
2022/01/07 12:49:53;;;;;;;6.80;5.10;;;1.40;99.90;;;;;;5010247;28;20198;-71
2022/01/07 12:52:21;;;;;;;6.88;5.38;;;1.50;99.90;;;;;;5009933;28;20198;-70
2022/01/07 12:54:56;;;;;;;8.52;6.05;;;1.50;99.90;;;;;;5010423;28;20222;-71
2022/01/07 12:57:31;;;;;;;7.50;5.38;;;1.50;99.90;;;;;;5010048;28;20208;-69
2022/01/07 13:00:12;;;;;;;5.88;5.30;;;1.70;99.90;;;;;;5010297;28;20210;-69
2022/01/07 13:02:39;;;;;;;7.72;5.35;;;1.80;99.90;;;;;;5009328;28;20226;-71
2022/01/07 13:05:24;;;;;;;8.65;4.65;;;1.60;99.90;;;;;;5010202;28;20241;-70
2022/01/07 13:07:54;;;;;;;5.03;4.53;;;1.60;99.90;;;;;;5010811;28;20406;-70
2022/01/07 13:10:23;;;;;;;5.38;4.57;;;1.50;99.90;;;;;;5014184;28;20198;-70
2022/01/07 13:12:59;;;;;;;10.05;4.85;;;1.60;99.90;;;;;;5012592;28;20256;-70
2022/01/07 13:15:48;;;;;;;5.97;4.60;;;1.60;99.90;;;;;;5013683;28;20229;-69